sensor_id;sensor_type;location;lat;lon;timestamp;temperature;humidity
16160;DHT22;8185;57.818;15.224;2023-03-04T00:02:27;1.20;96.60
16160;DHT22;8185;57.818;15.224;2023-03-04T00:04:55;1.10;97.20
16160;DHT22;8185;57.818;15.224;2023-03-04T00:07:22;1.20;96.90
16160;DHT22;8185;57.818;15.224;2023-03-04T00:09:50;1.10;97.40
16160;DHT22;8185;57.818;15.224;2023-03-04T00:12:17;1.10;97.20
16160;DHT22;8185;57.818;15.224;2023-03-04T00:14:44;1.10;97.10
16160;DHT22;8185;57.818;15.224;2023-03-04T00:17:11;0.90;98.00
16160;DHT22;8185;57.818;15.224;2023-03-04T00:19:38;0.80;98.70
16160;DHT22;8185;57.818;15.224;2023-03-04T00:22:07;0.60;99.20
16160;DHT22;8185;57.818;15.224;2023-03-04T00:24:34;0.70;99.10
16160;DHT22;8185;57.818;15.224;2023-03-04T00:27:01;0.70;99.40
16160;DHT22;8185;57.818;15.224;2023-03-04T00:29:28;0.90;98.60
16160;DHT22;8185;57.818;15.224;2023-03-04T00:31:56;0.90;98.60
16160;DHT22;8185;57.818;15.224;2023-03-04T00:34:23;0.60;99.60
16160;DHT22;8185;57.818;15.224;2023-03-04T00:36:50;0.30;99.90
16160;DHT22;8185;57.818;15.224;2023-03-04T00:39:19;0.30;99.90
16160;DHT22;8185;57.818;15.224;2023-03-04T00:41:46;0.40;99.90
16160;DHT22;8185;57.818;15.224;2023-03-04T00:44:13;0.30;99.90
16160;DHT22;8185;57.818;15.224;2023-03-04T00:46:40;0.50;99.90
16160;DHT22;8185;57.818;15.224;2023-03-04T00:49:07;0.50;99.90
16160;DHT22;8185;57.818;15.224;2023-03-04T00:51:35;0.50;99.90
16160;DHT22;8185;57.818;15.224;2023-03-04T00:54:02;0.70;99.90
16160;DHT22;8185;57.818;15.224;2023-03-04T00:56:31;0.80;99.90
16160;DHT22;8185;57.818;15.224;2023-03-04T00:58:58;0.70;99.90
16160;DHT22;8185;57.818;15.224;2023-03-04T01:01:25;0.60;99.90
16160;DHT22;8185;57.818;15.224;2023-03-04T01:03:53;0.60;99.90
16160;DHT22;8185;57.818;15.224;2023-03-04T01:06:20;0.30;99.90
16160;DHT22;8185;57.818;15.224;2023-03-04T01:08:47;0.10;99.90
16160;DHT22;8185;57.818;15.224;2023-03-04T01:11:14;-0.10;99.90
16160;DHT22;8185;57.818;15.224;2023-03-04T01:13:43;-0.40;99.90
16160;DHT22;8185;57.818;15.224;2023-03-04T01:16:10;-0.50;99.90
16160;DHT22;8185;57.818;15.224;2023-03-04T01:18:38;-0.40;99.90
16160;DHT22;8185;57.818;15.224;2023-03-04T01:21:05;-0.20;99.90
16160;DHT22;8185;57.818;15.224;2023-03-04T01:23:32;-0.30;99.90
16160;DHT22;8185;57.818;15.224;2023-03-04T01:25:59;-0.10;99.90
16160;DHT22;8185;57.818;15.224;2023-03-04T01:28:27;0.00;99.90
16160;DHT22;8185;57.818;15.224;2023-03-04T01:30:55;-0.10;99.90
16160;DHT22;8185;57.818;15.224;2023-03-04T01:33:22;-0.10;99.90
16160;DHT22;8185;57.818;15.224;2023-03-04T01:35:49;0.10;99.90
16160;DHT22;8185;57.818;15.224;2023-03-04T01:38:17;0.20;99.90
16160;DHT22;8185;57.818;15.224;2023-03-04T01:40:44;0.10;99.90
16160;DHT22;8185;57.818;15.224;2023-03-04T01:43:15;0.20;99.90
16160;DHT22;8185;57.818;15.224;2023-03-04T01:45:45;0.10;99.90
16160;DHT22;8185;57.818;15.224;2023-03-04T01:48:17;0.30;99.90
16160;DHT22;8185;57.818;15.224;2023-03-04T01:50:45;0.50;99.90
16160;DHT22;8185;57.818;15.224;2023-03-04T01:53:16;0.50;99.90
16160;DHT22;8185;57.818;15.224;2023-03-04T01:55:44;0.40;99.90
16160;DHT22;8185;57.818;15.224;2023-03-04T01:58:11;0.20;99.90
16160;DHT22;8185;57.818;15.224;2023-03-04T02:00:39;0.30;99.90
16160;DHT22;8185;57.818;15.224;2023-03-04T02:03:08;0.40;99.90
16160;DHT22;8185;57.818;15.224;2023-03-04T02:05:41;0.30;99.90
16160;DHT22;8185;57.818;15.224;2023-03-04T02:08:09;0.20;99.90
16160;DHT22;8185;57.818;15.224;2023-03-04T02:10:38;0.10;99.90
16160;DHT22;8185;57.818;15.224;2023-03-04T02:13:06;0.00;99.90
16160;DHT22;8185;57.818;15.224;2023-03-04T02:15:33;0.10;99.90
16160;DHT22;8185;57.818;15.224;2023-03-04T02:18:01;0.10;99.90
16160;DHT22;8185;57.818;15.224;2023-03-04T02:20:40;-0.10;99.90
16160;DHT22;8185;57.818;15.224;2023-03-04T02:23:14;-0.30;99.90
16160;DHT22;8185;57.818;15.224;2023-03-04T02:25:46;-0.30;99.90
16160;DHT22;8185;57.818;15.224;2023-03-04T02:28:15;-0.40;99.90
16160;DHT22;8185;57.818;15.224;2023-03-04T02:30:42;-0.40;99.90
16160;DHT22;8185;57.818;15.224;2023-03-04T02:33:15;-0.30;99.90
16160;DHT22;8185;57.818;15.224;2023-03-04T02:35:42;-0.40;99.90
16160;DHT22;8185;57.818;15.224;2023-03-04T02:38:10;-0.30;99.90
16160;DHT22;8185;57.818;15.224;2023-03-04T02:40:38;-0.40;99.90
16160;DHT22;8185;57.818;15.224;2023-03-04T02:43:07;-0.30;99.90
16160;DHT22;8185;57.818;15.224;2023-03-04T02:45:40;-0.30;99.90
16160;DHT22;8185;57.818;15.224;2023-03-04T02:48:09;-0.40;99.90
16160;DHT22;8185;57.818;15.224;2023-03-04T02:50:41;-0.50;99.90
16160;DHT22;8185;57.818;15.224;2023-03-04T02:53:08;-0.50;99.90
16160;DHT22;8185;57.818;15.224;2023-03-04T02:55:36;-0.40;99.90
16160;DHT22;8185;57.818;15.224;2023-03-04T02:58:03;-0.60;99.90
16160;DHT22;8185;57.818;15.224;2023-03-04T03:00:30;-0.50;99.90
16160;DHT22;8185;57.818;15.224;2023-03-04T03:02:59;-0.50;99.90
16160;DHT22;8185;57.818;15.224;2023-03-04T03:05:31;-0.40;99.90
16160;DHT22;8185;57.818;15.224;2023-03-04T03:07:59;-0.50;99.90
16160;DHT22;8185;57.818;15.224;2023-03-04T03:10:26;-0.40;99.90
16160;DHT22;8185;57.818;15.224;2023-03-04T03:12:53;-0.50;99.80
16160;DHT22;8185;57.818;15.224;2023-03-04T03:15:20;-0.50;99.90
16160;DHT22;8185;57.818;15.224;2023-03-04T03:17:48;-0.50;99.70
16160;DHT22;8185;57.818;15.224;2023-03-04T03:20:17;-0.50;99.80
16160;DHT22;8185;57.818;15.224;2023-03-04T03:22:45;-0.60;99.90
16160;DHT22;8185;57.818;15.224;2023-03-04T03:25:14;-0.70;99.90
16160;DHT22;8185;57.818;15.224;2023-03-04T03:27:42;-0.90;99.90
16160;DHT22;8185;57.818;15.224;2023-03-04T03:30:12;-0.90;99.90
16160;DHT22;8185;57.818;15.224;2023-03-04T03:32:39;-1.00;99.90
16160;DHT22;8185;57.818;15.224;2023-03-04T03:35:08;-0.90;99.90
16160;DHT22;8185;57.818;15.224;2023-03-04T03:37:37;-0.90;99.90
16160;DHT22;8185;57.818;15.224;2023-03-04T03:40:05;-0.90;99.90
16160;DHT22;8185;57.818;15.224;2023-03-04T03:42:32;-0.70;99.60
16160;DHT22;8185;57.818;15.224;2023-03-04T03:44:59;-0.70;98.80
16160;DHT22;8185;57.818;15.224;2023-03-04T03:47:26;-0.80;98.90
16160;DHT22;8185;57.818;15.224;2023-03-04T03:49:54;-1.00;99.20
16160;DHT22;8185;57.818;15.224;2023-03-04T03:52:21;-0.80;98.10
16160;DHT22;8185;57.818;15.224;2023-03-04T03:54:50;-0.90;98.30
16160;DHT22;8185;57.818;15.224;2023-03-04T03:57:17;-1.00;99.30
16160;DHT22;8185;57.818;15.224;2023-03-04T03:59:44;-1.00;99.20
16160;DHT22;8185;57.818;15.224;2023-03-04T04:02:11;-1.00;99.20
16160;DHT22;8185;57.818;15.224;2023-03-04T04:04:38;-1.20;99.90
16160;DHT22;8185;57.818;15.224;2023-03-04T04:07:05;-1.00;99.30
16160;DHT22;8185;57.818;15.224;2023-03-04T04:09:33;-1.10;98.70
16160;DHT22;8185;57.818;15.224;2023-03-04T04:12:03;-1.00;97.80
16160;DHT22;8185;57.818;15.224;2023-03-04T04:14:31;-1.00;96.70
16160;DHT22;8185;57.818;15.224;2023-03-04T04:16:58;-1.10;96.40
16160;DHT22;8185;57.818;15.224;2023-03-04T04:19:25;-1.00;95.70
16160;DHT22;8185;57.818;15.224;2023-03-04T04:21:52;-1.00;94.50
16160;DHT22;8185;57.818;15.224;2023-03-04T04:24:20;-1.10;94.90
16160;DHT22;8185;57.818;15.224;2023-03-04T04:26:47;-1.10;94.60
16160;DHT22;8185;57.818;15.224;2023-03-04T04:29:16;-1.30;95.40
16160;DHT22;8185;57.818;15.224;2023-03-04T04:31:43;-1.40;95.90
16160;DHT22;8185;57.818;15.224;2023-03-04T04:34:10;-1.20;95.50
16160;DHT22;8185;57.818;15.224;2023-03-04T04:36:37;-1.30;95.70
16160;DHT22;8185;57.818;15.224;2023-03-04T04:39:05;-1.20;96.00
16160;DHT22;8185;57.818;15.224;2023-03-04T04:41:36;-1.20;95.80
16160;DHT22;8185;57.818;15.224;2023-03-04T04:44:04;-1.10;94.60
16160;DHT22;8185;57.818;15.224;2023-03-04T04:46:33;-1.20;93.10
16160;DHT22;8185;57.818;15.224;2023-03-04T04:49:00;-1.20;91.70
16160;DHT22;8185;57.818;15.224;2023-03-04T04:51:27;-1.30;91.10
16160;DHT22;8185;57.818;15.224;2023-03-04T04:53:55;-1.40;91.00
16160;DHT22;8185;57.818;15.224;2023-03-04T04:56:23;-1.40;90.60
16160;DHT22;8185;57.818;15.224;2023-03-04T04:58:52;-1.60;90.70
16160;DHT22;8185;57.818;15.224;2023-03-04T05:01:19;-1.60;90.90
16160;DHT22;8185;57.818;15.224;2023-03-04T05:03:48;-1.60;90.70
16160;DHT22;8185;57.818;15.224;2023-03-04T05:06:18;-1.60;90.70
16160;DHT22;8185;57.818;15.224;2023-03-04T05:08:46;-1.50;90.60
16160;DHT22;8185;57.818;15.224;2023-03-04T05:11:13;-1.60;90.50
16160;DHT22;8185;57.818;15.224;2023-03-04T05:13:41;-1.70;91.10
16160;DHT22;8185;57.818;15.224;2023-03-04T05:16:08;-1.60;91.30
16160;DHT22;8185;57.818;15.224;2023-03-04T05:18:36;-1.70;91.50
16160;DHT22;8185;57.818;15.224;2023-03-04T05:21:05;-1.60;91.90
16160;DHT22;8185;57.818;15.224;2023-03-04T05:23:36;-1.70;92.40
16160;DHT22;8185;57.818;15.224;2023-03-04T05:26:05;-1.70;92.80
16160;DHT22;8185;57.818;15.224;2023-03-04T05:28:33;-1.70;93.20
16160;DHT22;8185;57.818;15.224;2023-03-04T05:31:01;-1.80;93.30
16160;DHT22;8185;57.818;15.224;2023-03-04T05:33:29;-1.90;94.50
16160;DHT22;8185;57.818;15.224;2023-03-04T05:35:56;-1.80;94.40
16160;DHT22;8185;57.818;15.224;2023-03-04T05:38:25;-1.90;94.80
16160;DHT22;8185;57.818;15.224;2023-03-04T05:40:56;-1.90;95.00
16160;DHT22;8185;57.818;15.224;2023-03-04T05:43:24;-1.90;95.90
16160;DHT22;8185;57.818;15.224;2023-03-04T05:45:51;-2.00;96.80
16160;DHT22;8185;57.818;15.224;2023-03-04T05:48:18;-1.90;96.60
16160;DHT22;8185;57.818;15.224;2023-03-04T05:50:45;-1.90;96.90
16160;DHT22;8185;57.818;15.224;2023-03-04T05:53:12;-2.00;96.80
16160;DHT22;8185;57.818;15.224;2023-03-04T05:55:45;-1.90;94.40
16160;DHT22;8185;57.818;15.224;2023-03-04T05:58:13;-1.80;93.50
16160;DHT22;8185;57.818;15.224;2023-03-04T06:00:40;-1.70;91.90
16160;DHT22;8185;57.818;15.224;2023-03-04T06:03:13;-1.80;92.40
16160;DHT22;8185;57.818;15.224;2023-03-04T06:05:40;-1.90;92.20
16160;DHT22;8185;57.818;15.224;2023-03-04T06:08:07;-1.80;92.40
16160;DHT22;8185;57.818;15.224;2023-03-04T06:10:35;-1.70;92.10
16160;DHT22;8185;57.818;15.224;2023-03-04T06:13:03;-1.80;92.20
16160;DHT22;8185;57.818;15.224;2023-03-04T06:15:30;-1.80;92.00
16160;DHT22;8185;57.818;15.224;2023-03-04T06:17:58;-1.80;91.30
16160;DHT22;8185;57.818;15.224;2023-03-04T06:20:25;-1.80;91.40
16160;DHT22;8185;57.818;15.224;2023-03-04T06:22:52;-1.90;92.40
16160;DHT22;8185;57.818;15.224;2023-03-04T06:25:20;-1.90;91.10
16160;DHT22;8185;57.818;15.224;2023-03-04T06:27:47;-1.90;90.90
16160;DHT22;8185;57.818;15.224;2023-03-04T06:30:17;-1.80;90.00
16160;DHT22;8185;57.818;15.224;2023-03-04T06:32:44;-1.80;88.20
16160;DHT22;8185;57.818;15.224;2023-03-04T06:35:13;-1.80;88.40
16160;DHT22;8185;57.818;15.224;2023-03-04T06:37:40;-1.70;88.50
16160;DHT22;8185;57.818;15.224;2023-03-04T06:40:09;-1.90;88.60
16160;DHT22;8185;57.818;15.224;2023-03-04T06:42:38;-1.90;88.30
16160;DHT22;8185;57.818;15.224;2023-03-04T06:45:06;-1.90;86.70
16160;DHT22;8185;57.818;15.224;2023-03-04T06:47:35;-1.80;85.10
16160;DHT22;8185;57.818;15.224;2023-03-04T06:50:03;-1.70;83.50
16160;DHT22;8185;57.818;15.224;2023-03-04T06:52:30;-1.70;84.20
16160;DHT22;8185;57.818;15.224;2023-03-04T06:54:57;-1.60;81.90
16160;DHT22;8185;57.818;15.224;2023-03-04T06:57:25;-1.70;82.60
16160;DHT22;8185;57.818;15.224;2023-03-04T06:59:52;-1.70;84.20
16160;DHT22;8185;57.818;15.224;2023-03-04T07:02:19;-1.70;83.80
16160;DHT22;8185;57.818;15.224;2023-03-04T07:04:48;-1.60;83.50
16160;DHT22;8185;57.818;15.224;2023-03-04T07:07:15;-1.60;84.40
16160;DHT22;8185;57.818;15.224;2023-03-04T07:09:42;-1.60;85.00
16160;DHT22;8185;57.818;15.224;2023-03-04T07:12:09;-1.40;85.30
16160;DHT22;8185;57.818;15.224;2023-03-04T07:14:36;-1.40;87.10
16160;DHT22;8185;57.818;15.224;2023-03-04T07:17:04;-1.40;86.60
16160;DHT22;8185;57.818;15.224;2023-03-04T07:19:31;-1.30;89.00
16160;DHT22;8185;57.818;15.224;2023-03-04T07:21:59;-1.10;89.90
16160;DHT22;8185;57.818;15.224;2023-03-04T07:24:26;-1.00;90.10
16160;DHT22;8185;57.818;15.224;2023-03-04T07:26:54;-1.00;91.00
16160;DHT22;8185;57.818;15.224;2023-03-04T07:29:21;-1.10;91.10
16160;DHT22;8185;57.818;15.224;2023-03-04T07:31:48;-1.10;91.50
16160;DHT22;8185;57.818;15.224;2023-03-04T07:34:15;-0.90;91.90
16160;DHT22;8185;57.818;15.224;2023-03-04T07:36:43;-0.90;91.80
16160;DHT22;8185;57.818;15.224;2023-03-04T07:39:12;-1.00;91.60
16160;DHT22;8185;57.818;15.224;2023-03-04T07:41:39;-1.20;90.30
16160;DHT22;8185;57.818;15.224;2023-03-04T07:44:09;-1.30;89.00
16160;DHT22;8185;57.818;15.224;2023-03-04T07:46:37;-1.50;87.20
16160;DHT22;8185;57.818;15.224;2023-03-04T07:49:04;-1.60;89.50
16160;DHT22;8185;57.818;15.224;2023-03-04T07:51:31;-1.70;86.00
16160;DHT22;8185;57.818;15.224;2023-03-04T07:54:00;-1.80;85.80
16160;DHT22;8185;57.818;15.224;2023-03-04T07:56:31;-1.80;85.90
16160;DHT22;8185;57.818;15.224;2023-03-04T07:58:59;-1.70;86.00
16160;DHT22;8185;57.818;15.224;2023-03-04T08:01:27;-1.60;86.00
16160;DHT22;8185;57.818;15.224;2023-03-04T08:03:55;-1.50;88.20
16160;DHT22;8185;57.818;15.224;2023-03-04T08:06:22;-1.40;86.30
16160;DHT22;8185;57.818;15.224;2023-03-04T08:08:55;-1.30;86.60
16160;DHT22;8185;57.818;15.224;2023-03-04T08:11:23;-1.10;88.30
16160;DHT22;8185;57.818;15.224;2023-03-04T08:13:52;-1.10;86.90
16160;DHT22;8185;57.818;15.224;2023-03-04T08:16:21;-1.20;87.50
16160;DHT22;8185;57.818;15.224;2023-03-04T08:18:50;-1.20;84.90
16160;DHT22;8185;57.818;15.224;2023-03-04T08:21:19;-1.20;84.90
16160;DHT22;8185;57.818;15.224;2023-03-04T08:23:47;-1.20;85.40
16160;DHT22;8185;57.818;15.224;2023-03-04T08:26:18;-1.10;86.80
16160;DHT22;8185;57.818;15.224;2023-03-04T08:28:45;-1.10;86.40
16160;DHT22;8185;57.818;15.224;2023-03-04T08:31:15;-1.00;85.90
16160;DHT22;8185;57.818;15.224;2023-03-04T08:33:43;-1.20;84.00
16160;DHT22;8185;57.818;15.224;2023-03-04T08:36:11;-1.20;84.70
16160;DHT22;8185;57.818;15.224;2023-03-04T08:38:39;-1.20;84.60
16160;DHT22;8185;57.818;15.224;2023-03-04T08:41:06;-1.00;85.30
16160;DHT22;8185;57.818;15.224;2023-03-04T08:43:34;-1.10;85.30
16160;DHT22;8185;57.818;15.224;2023-03-04T08:46:01;-1.10;84.40
16160;DHT22;8185;57.818;15.224;2023-03-04T08:48:32;-1.20;84.10
16160;DHT22;8185;57.818;15.224;2023-03-04T08:50:59;-1.10;84.30
16160;DHT22;8185;57.818;15.224;2023-03-04T08:53:26;-1.00;85.50
16160;DHT22;8185;57.818;15.224;2023-03-04T08:55:53;-1.00;84.10
16160;DHT22;8185;57.818;15.224;2023-03-04T08:58:21;-1.00;84.10
16160;DHT22;8185;57.818;15.224;2023-03-04T09:00:51;-0.80;84.90
16160;DHT22;8185;57.818;15.224;2023-03-04T09:03:18;-0.60;85.10
16160;DHT22;8185;57.818;15.224;2023-03-04T09:05:47;-0.40;85.70
16160;DHT22;8185;57.818;15.224;2023-03-04T09:08:15;-0.50;85.10
16160;DHT22;8185;57.818;15.224;2023-03-04T09:10:42;-0.70;84.60
16160;DHT22;8185;57.818;15.224;2023-03-04T09:13:10;-0.90;83.70
16160;DHT22;8185;57.818;15.224;2023-03-04T09:15:37;-0.80;85.50
16160;DHT22;8185;57.818;15.224;2023-03-04T09:18:09;-0.50;86.80
16160;DHT22;8185;57.818;15.224;2023-03-04T09:20:36;-0.20;88.70
16160;DHT22;8185;57.818;15.224;2023-03-04T09:23:05;-0.10;87.70
16160;DHT22;8185;57.818;15.224;2023-03-04T09:25:34;-0.40;87.00
16160;DHT22;8185;57.818;15.224;2023-03-04T09:28:01;-0.50;87.10
16160;DHT22;8185;57.818;15.224;2023-03-04T09:30:28;-0.40;88.50
16160;DHT22;8185;57.818;15.224;2023-03-04T09:32:56;-0.10;90.40
16160;DHT22;8185;57.818;15.224;2023-03-04T09:35:23;-0.10;88.70
16160;DHT22;8185;57.818;15.224;2023-03-04T09:37:50;-0.40;88.30
16160;DHT22;8185;57.818;15.224;2023-03-04T09:40:21;-0.50;88.20
16160;DHT22;8185;57.818;15.224;2023-03-04T09:42:51;-0.70;88.10
16160;DHT22;8185;57.818;15.224;2023-03-04T09:45:22;-0.40;88.70
16160;DHT22;8185;57.818;15.224;2023-03-04T09:47:52;-0.10;88.80
16160;DHT22;8185;57.818;15.224;2023-03-04T09:50:20;-0.10;88.40
16160;DHT22;8185;57.818;15.224;2023-03-04T09:53:00;0.30;87.70
16160;DHT22;8185;57.818;15.224;2023-03-04T09:55:34;0.60;86.40
16160;DHT22;8185;57.818;15.224;2023-03-04T09:58:09;0.50;86.60
16160;DHT22;8185;57.818;15.224;2023-03-04T10:00:44;0.60;86.10
16160;DHT22;8185;57.818;15.224;2023-03-04T10:03:15;0.60;85.30
16160;DHT22;8185;57.818;15.224;2023-03-04T10:05:49;0.30;84.10
16160;DHT22;8185;57.818;15.224;2023-03-04T10:08:26;0.70;85.30
16160;DHT22;8185;57.818;15.224;2023-03-04T10:10:59;1.30;85.90
16160;DHT22;8185;57.818;15.224;2023-03-04T10:13:33;1.50;86.90
16160;DHT22;8185;57.818;15.224;2023-03-04T10:16:04;1.10;86.30
16160;DHT22;8185;57.818;15.224;2023-03-04T10:18:36;1.00;88.80
16160;DHT22;8185;57.818;15.224;2023-03-04T10:21:14;0.40;86.90
16160;DHT22;8185;57.818;15.224;2023-03-04T10:23:43;0.60;89.40
16160;DHT22;8185;57.818;15.224;2023-03-04T10:26:14;1.20;89.40
16160;DHT22;8185;57.818;15.224;2023-03-04T10:28:42;1.80;88.50
16160;DHT22;8185;57.818;15.224;2023-03-04T10:31:14;1.50;85.20
16160;DHT22;8185;57.818;15.224;2023-03-04T10:33:43;1.40;84.30
16160;DHT22;8185;57.818;15.224;2023-03-04T10:36:23;1.90;85.40
16160;DHT22;8185;57.818;15.224;2023-03-04T10:38:53;1.80;83.60
16160;DHT22;8185;57.818;15.224;2023-03-04T10:41:23;2.00;84.60
16160;DHT22;8185;57.818;15.224;2023-03-04T10:44:00;1.90;84.10
16160;DHT22;8185;57.818;15.224;2023-03-04T10:46:27;2.00;83.40
16160;DHT22;8185;57.818;15.224;2023-03-04T10:48:55;2.00;83.30
16160;DHT22;8185;57.818;15.224;2023-03-04T10:51:25;2.00;83.90
16160;DHT22;8185;57.818;15.224;2023-03-04T10:53:57;2.00;81.40
16160;DHT22;8185;57.818;15.224;2023-03-04T10:56:35;2.10;81.30
16160;DHT22;8185;57.818;15.224;2023-03-04T11:02:20;3.00;79.80
16160;DHT22;8185;57.818;15.224;2023-03-04T11:04:56;3.20;79.60
16160;DHT22;8185;57.818;15.224;2023-03-04T11:07:25;2.70;79.60
16160;DHT22;8185;57.818;15.224;2023-03-04T11:09:53;2.90;81.00
16160;DHT22;8185;57.818;15.224;2023-03-04T11:12:32;3.20;79.70
16160;DHT22;8185;57.818;15.224;2023-03-04T11:15:01;2.70;78.70
16160;DHT22;8185;57.818;15.224;2023-03-04T11:17:41;3.10;80.90
16160;DHT22;8185;57.818;15.224;2023-03-04T11:20:15;2.80;79.90
16160;DHT22;8185;57.818;15.224;2023-03-04T11:22:44;2.80;80.90
16160;DHT22;8185;57.818;15.224;2023-03-04T11:25:23;2.70;81.60
16160;DHT22;8185;57.818;15.224;2023-03-04T11:27:54;2.50;81.90
16160;DHT22;8185;57.818;15.224;2023-03-04T11:30:40;2.20;84.20
16160;DHT22;8185;57.818;15.224;2023-03-04T11:33:13;2.20;84.90
16160;DHT22;8185;57.818;15.224;2023-03-04T11:35:54;2.00;85.20
16160;DHT22;8185;57.818;15.224;2023-03-04T11:38:28;2.10;85.90
16160;DHT22;8185;57.818;15.224;2023-03-04T11:41:00;1.90;84.70
16160;DHT22;8185;57.818;15.224;2023-03-04T11:43:34;1.70;84.30
16160;DHT22;8185;57.818;15.224;2023-03-04T11:46:27;1.70;85.20
16160;DHT22;8185;57.818;15.224;2023-03-04T11:49:06;2.10;86.10
16160;DHT22;8185;57.818;15.224;2023-03-04T11:51:43;2.60;84.60
16160;DHT22;8185;57.818;15.224;2023-03-04T11:54:21;2.30;84.20
16160;DHT22;8185;57.818;15.224;2023-03-04T11:56:58;2.20;84.10
16160;DHT22;8185;57.818;15.224;2023-03-04T11:59:55;1.70;83.60
16160;DHT22;8185;57.818;15.224;2023-03-04T12:02:31;1.80;85.80
16160;DHT22;8185;57.818;15.224;2023-03-04T12:05:27;1.60;84.60
16160;DHT22;8185;57.818;15.224;2023-03-04T12:08:23;1.90;85.90
16160;DHT22;8185;57.818;15.224;2023-03-04T12:11:00;1.90;85.20
16160;DHT22;8185;57.818;15.224;2023-03-04T12:13:48;1.20;86.00
16160;DHT22;8185;57.818;15.224;2023-03-04T12:16:31;1.30;86.90
16160;DHT22;8185;57.818;15.224;2023-03-04T12:19:10;1.30;87.30
16160;DHT22;8185;57.818;15.224;2023-03-04T12:22:03;1.90;87.40
16160;DHT22;8185;57.818;15.224;2023-03-04T12:24:52;2.60;88.30
16160;DHT22;8185;57.818;15.224;2023-03-04T12:27:32;2.30;85.50
16160;DHT22;8185;57.818;15.224;2023-03-04T12:30:05;2.10;85.20
16160;DHT22;8185;57.818;15.224;2023-03-04T12:32:48;2.20;85.70
16160;DHT22;8185;57.818;15.224;2023-03-04T12:35:31;2.70;87.20
16160;DHT22;8185;57.818;15.224;2023-03-04T12:38:16;2.10;84.00
16160;DHT22;8185;57.818;15.224;2023-03-04T12:40:51;1.90;84.10
16160;DHT22;8185;57.818;15.224;2023-03-04T12:46:25;2.80;85.20
16160;DHT22;8185;57.818;15.224;2023-03-04T12:49:08;2.50;84.00
16160;DHT22;8185;57.818;15.224;2023-03-04T12:51:45;2.80;84.20
16160;DHT22;8185;57.818;15.224;2023-03-04T12:54:22;3.40;83.50
16160;DHT22;8185;57.818;15.224;2023-03-04T12:56:55;3.60;84.80
16160;DHT22;8185;57.818;15.224;2023-03-04T12:59:25;3.40;82.90
16160;DHT22;8185;57.818;15.224;2023-03-04T13:01:58;3.20;83.50
16160;DHT22;8185;57.818;15.224;2023-03-04T13:04:39;3.10;83.30
16160;DHT22;8185;57.818;15.224;2023-03-04T13:07:16;3.00;83.70
16160;DHT22;8185;57.818;15.224;2023-03-04T13:09:51;2.50;83.10
16160;DHT22;8185;57.818;15.224;2023-03-04T13:12:22;2.30;84.20
16160;DHT22;8185;57.818;15.224;2023-03-04T13:17:54;1.80;85.10
16160;DHT22;8185;57.818;15.224;2023-03-04T13:20:35;1.80;85.90
16160;DHT22;8185;57.818;15.224;2023-03-04T13:23:17;2.10;88.50
16160;DHT22;8185;57.818;15.224;2023-03-04T13:25:48;2.00;86.10
16160;DHT22;8185;57.818;15.224;2023-03-04T13:28:22;1.80;85.30
16160;DHT22;8185;57.818;15.224;2023-03-04T13:31:18;2.10;85.50
16160;DHT22;8185;57.818;15.224;2023-03-04T13:33:55;2.10;85.70
16160;DHT22;8185;57.818;15.224;2023-03-04T13:39:28;3.20;85.20
16160;DHT22;8185;57.818;15.224;2023-03-04T13:41:56;3.00;83.60
16160;DHT22;8185;57.818;15.224;2023-03-04T13:44:58;3.30;84.80
16160;DHT22;8185;57.818;15.224;2023-03-04T13:50:29;4.20;82.40
16160;DHT22;8185;57.818;15.224;2023-03-04T13:56:23;4.50;79.60
16160;DHT22;8185;57.818;15.224;2023-03-04T13:59:02;4.60;80.40
16160;DHT22;8185;57.818;15.224;2023-03-04T14:01:31;4.40;80.80
16160;DHT22;8185;57.818;15.224;2023-03-04T14:04:00;4.00;80.10
16160;DHT22;8185;57.818;15.224;2023-03-04T14:06:29;4.10;79.80
16160;DHT22;8185;57.818;15.224;2023-03-04T14:08:58;3.90;80.10
16160;DHT22;8185;57.818;15.224;2023-03-04T14:11:32;4.30;78.80
16160;DHT22;8185;57.818;15.224;2023-03-04T14:14:05;4.30;78.10
16160;DHT22;8185;57.818;15.224;2023-03-04T14:16:37;4.30;78.60
16160;DHT22;8185;57.818;15.224;2023-03-04T14:19:06;4.20;79.10
16160;DHT22;8185;57.818;15.224;2023-03-04T14:21:44;4.50;78.90
16160;DHT22;8185;57.818;15.224;2023-03-04T14:24:15;5.10;77.40
16160;DHT22;8185;57.818;15.224;2023-03-04T14:26:43;6.20;77.10
16160;DHT22;8185;57.818;15.224;2023-03-04T14:29:22;7.10;76.40
16160;DHT22;8185;57.818;15.224;2023-03-04T14:31:50;7.60;75.30
16160;DHT22;8185;57.818;15.224;2023-03-04T14:34:23;7.20;73.60
16160;DHT22;8185;57.818;15.224;2023-03-04T14:36:50;6.00;73.90
16160;DHT22;8185;57.818;15.224;2023-03-04T14:39:20;6.80;74.10
16160;DHT22;8185;57.818;15.224;2023-03-04T14:41:49;6.90;73.00
16160;DHT22;8185;57.818;15.224;2023-03-04T14:44:24;6.20;70.70
16160;DHT22;8185;57.818;15.224;2023-03-04T14:46:55;6.80;71.90
16160;DHT22;8185;57.818;15.224;2023-03-04T14:49:24;6.60;71.00
16160;DHT22;8185;57.818;15.224;2023-03-04T14:51:52;7.00;69.70
16160;DHT22;8185;57.818;15.224;2023-03-04T14:54:40;7.80;71.10
16160;DHT22;8185;57.818;15.224;2023-03-04T14:57:22;7.40;69.00
16160;DHT22;8185;57.818;15.224;2023-03-04T14:59:51;8.10;69.00
16160;DHT22;8185;57.818;15.224;2023-03-04T15:02:24;8.10;66.80
16160;DHT22;8185;57.818;15.224;2023-03-04T15:04:58;7.50;66.90
16160;DHT22;8185;57.818;15.224;2023-03-04T15:07:30;8.00;66.20
16160;DHT22;8185;57.818;15.224;2023-03-04T15:10:01;8.00;66.00
16160;DHT22;8185;57.818;15.224;2023-03-04T15:12:31;6.90;66.10
16160;DHT22;8185;57.818;15.224;2023-03-04T15:15:01;6.80;65.80
16160;DHT22;8185;57.818;15.224;2023-03-04T15:17:32;7.50;66.80
16160;DHT22;8185;57.818;15.224;2023-03-04T15:20:21;6.00;64.80
16160;DHT22;8185;57.818;15.224;2023-03-04T15:23:01;7.20;67.30
16160;DHT22;8185;57.818;15.224;2023-03-04T15:25:30;7.30;65.20
16160;DHT22;8185;57.818;15.224;2023-03-04T15:27:57;7.70;64.40
16160;DHT22;8185;57.818;15.224;2023-03-04T15:30:27;6.60;64.10
16160;DHT22;8185;57.818;15.224;2023-03-04T15:32:55;6.80;66.80
16160;DHT22;8185;57.818;15.224;2023-03-04T15:35:24;6.90;65.10
16160;DHT22;8185;57.818;15.224;2023-03-04T15:37:54;6.40;65.80
16160;DHT22;8185;57.818;15.224;2023-03-04T15:40:28;6.50;66.00
16160;DHT22;8185;57.818;15.224;2023-03-04T15:42:59;5.70;65.40
16160;DHT22;8185;57.818;15.224;2023-03-04T15:45:29;5.70;67.90
16160;DHT22;8185;57.818;15.224;2023-03-04T15:47:57;5.60;68.00
16160;DHT22;8185;57.818;15.224;2023-03-04T15:50:27;5.70;67.90
16160;DHT22;8185;57.818;15.224;2023-03-04T15:52:57;5.20;67.70
16160;DHT22;8185;57.818;15.224;2023-03-04T15:55:27;5.00;68.00
16160;DHT22;8185;57.818;15.224;2023-03-04T15:57:57;5.00;69.60
16160;DHT22;8185;57.818;15.224;2023-03-04T16:00:25;4.80;69.60
16160;DHT22;8185;57.818;15.224;2023-03-04T16:02:53;5.00;70.70
16160;DHT22;8185;57.818;15.224;2023-03-04T16:05:20;4.40;69.50
16160;DHT22;8185;57.818;15.224;2023-03-04T16:07:48;4.70;69.70
16160;DHT22;8185;57.818;15.224;2023-03-04T16:10:20;4.60;71.10
16160;DHT22;8185;57.818;15.224;2023-03-04T16:12:48;4.80;71.20
16160;DHT22;8185;57.818;15.224;2023-03-04T16:15:19;4.60;70.90
16160;DHT22;8185;57.818;15.224;2023-03-04T16:17:46;4.00;70.40